Terminal Aerodrome Forecast
Issued by NWS Shreveport, LA

Home | Current Version | Previous Version | Text Only | Print | Product List | Glossary On
Versions: 1 2 3 4 5 6 7 8 9 10 11 12 13 14 15 16 17 18 19
000
FTUS44 KSHV 012003 AAA
TAFMLU
TAF AMD
KMLU 012003Z 0120/0218 23012G18KT P6SM SCT035 BKN250
     FM020000 20009KT P6SM SCT040 SCT130
     FM020300 19008KT P6SM VCTS BKN045CB OVC120
     FM020500 19006KT P6SM SCT045 BKN120
     FM021100 20008KT P6SM BKN015
     FM021500 23013G18KT P6SM OVC250=

USA.gov is the U.S. government's official web portal to all federal, state and local government web resources and services.